Andrew J. Barberi — WYR3370 — position and weather

sailwx.info

Track history (hours):
 
Tides and Currents Weather Stations Pressure Air Temp Water Temp Dewpoint Dewpoint Depression Visibility Wind Speed Wind Dir Waves Ship Positions

Andrew J. Barberi

Owner: CITY OF NEW YORK, Brooklyn, NY. More information available from US FCC via Universal Licensing System and Coast Guard Vessel Documentation Center.

Last reported at 2014-Oct-30 13:33 UTC. Time now 2014-Oct-30 14:27 UTC.
Position N 40°39' W 074°04'.

Length 94 m; draft 4.3 m.

Type: Ship. MMSI: 367000150.

Date/timePositionNaut miles runAvg speedWind from/ knotsBaromVisibWave heightAir tempDewpointWater temp
2014-Oct-30 13:33N 40°39' W 074°04'3 2.7
2014-Oct-30 12:33N 40°41' W 074°02'1 0.8
2014-Oct-30 11:33N 40°41' W 074°02'1 0.9
2014-Oct-30 10:33N 40°42' W 074°01'4 4.3
2014-Oct-30 09:33N 40°39' W 074°04'0 0.0
2014-Oct-30 08:15N 40°39' W 074°04'0 0.0
2014-Oct-30 07:32N 40°39' W 074°04'0 0.0
2014-Oct-30 06:29N 40°39' W 074°04'0 0.0
2014-Oct-30 05:32N 40°39' W 074°04'0 0.0
2014-Oct-30 04:32N 40°39' W 074°04'0 0.0
2014-Oct-30 03:32N 40°39' W 074°04'0 0.0
2014-Oct-30 02:32N 40°39' W 074°04'0 0.1
2014-Oct-30 01:33N 40°39' W 074°04'4 4.3
2014-Oct-30 00:33N 40°42' W 074°01'4 3.9
2014-Oct-29 23:34N 40°39' W 074°04'0 0.2
2014-Oct-29 21:33N 40°39' W 074°04'0 0.2
2014-Oct-29 20:33N 40°39' W 074°04'4 4.2
2014-Oct-29 19:33N 40°42' W 074°01'4 3.8
2014-Oct-29 18:25N 40°39' W 074°04'0 0.2
2014-Oct-29 17:33N 40°39' W 074°04'4 4.0
2014-Oct-29 16:34N 40°42' W 074°01'4 4.2
2014-Oct-29 15:33N 40°39' W 074°04'0 0.0
2014-Oct-29 14:33N 40°39' W 074°04'0 0.3
2014-Oct-29 13:33N 40°39' W 074°04'3 2.9
2014-Oct-29 12:33N 40°41' W 074°02'0 0.5
2014-Oct-29 11:33N 40°42' W 074°01'1 0.5
2014-Oct-29 10:34N 40°42' W 074°01'4 4.0
2014-Oct-29 09:34N 40°39' W 074°04'0 0.2
2014-Oct-29 08:33N 40°39' W 074°04'0 0.0
2014-Oct-29 07:33N 40°39' W 074°04'0 0.0
2014-Oct-29 06:33N 40°39' W 074°04'0 0.0
2014-Oct-29 05:33N 40°39' W 074°04'0 0.0
2014-Oct-29 04:33N 40°39' W 074°04'0 0.0
2014-Oct-29 03:30N 40°39' W 074°04'0 0.0
2014-Oct-29 02:33N 40°39' W 074°04'4 2.0
2014-Oct-29 00:26N 40°42' W 074°01'4 4.4
2014-Oct-28 23:27N 40°39' W 074°04'0 0.1
2014-Oct-28 22:33N 40°39' W 074°04'0 0.1
2014-Oct-28 21:34N 40°39' W 074°04'4 4.1
2014-Oct-28 20:33N 40°42' W 074°01'0 0.1
2014-Oct-28 19:27N 40°42' W 074°01'4 4.2
2014-Oct-28 18:25N 40°39' W 074°04'0 0.3
2014-Oct-28 17:34N 40°39' W 074°04'4 4.0
2014-Oct-28 16:34N 40°42' W 074°01'0 0.1
2014-Oct-28 15:34N 40°42' W 074°01'4 4.2
2014-Oct-28 14:34N 40°39' W 074°04'0 0.2
2014-Oct-28 13:33N 40°39' W 074°04'3 2.9
2014-Oct-28 12:33N 40°41' W 074°02'3 2.4
2014-Oct-28 11:17N 40°39' W 074°04'4 5.6
2014-Oct-28 10:34N 40°42' W 074°01'4 4.2
2014-Oct-28 09:33N 40°39' W 074°04'0 0.0
2014-Oct-28 08:17N 40°39' W 074°04'0 0.0
2014-Oct-28 07:32N 40°39' W 074°04'0 0.0
2014-Oct-28 06:32N 40°39' W 074°04'0 0.0
2014-Oct-28 05:32N 40°39' W 074°04'0 0.0
2014-Oct-28 04:32N 40°39' W 074°04'0 0.0
2014-Oct-28 03:32N 40°39' W 074°04'0 0.0
2014-Oct-28 02:32N 40°39' W 074°04'0 0.1
2014-Oct-28 01:33N 40°39' W 074°04'4 4.2
2014-Oct-28 00:34N 40°42' W 074°01'4 4.2
2014-Oct-27 23:33N 40°39' W 074°04'4 3.7
2014-Oct-27 22:33N 40°42' W 074°01'1 0.5
2014-Oct-27 21:33N 40°42' W 074°01'0 0.0
2014-Oct-27 20:34N 40°42' W 074°01'0 0.0
2014-Oct-27 19:33N 40°42' W 074°01'4 4.2
2014-Oct-27 18:33N 40°39' W 074°04'0 0.4
2014-Oct-27 17:33N 40°39' W 074°04'0 0.3
2014-Oct-27 16:33N 40°39' W 074°04'4 4.1
2014-Oct-27 15:33N 40°42' W 074°01'4 4.1
2014-Oct-27 14:33N 40°39' W 074°04'0 0.1
2014-Oct-27 13:33N 40°39' W 074°04'4 3.8
2014-Oct-27 12:34N 40°42' W 074°01'0 0.0
2014-Oct-27 11:34N 40°42' W 074°01'0 0.3
2014-Oct-27 10:33N 40°42' W 074°01'4 4.1
2014-Oct-27 09:32N 40°39' W 074°04'0 0.0
2014-Oct-27 08:33N 40°39' W 074°04'0 0.0
2014-Oct-27 07:33N 40°39' W 074°04'0 0.0
2014-Oct-27 06:33N 40°39' W 074°04'0 0.0
2014-Oct-27 05:33N 40°39' W 074°04'0 0.0
2014-Oct-27 04:33N 40°39' W 074°04'0 0.0
2014-Oct-27 03:33N 40°39' W 074°04'0 0.0
2014-Oct-27 02:33N 40°39' W 074°04'0 0.0
2014-Oct-27 01:33N 40°39' W 074°04'0 0.0
2014-Oct-27 00:33N 40°39' W 074°04'0 0.0
2014-Oct-26 23:33N 40°39' W 074°04'1 0.5
2014-Oct-26 22:34N 40°39' W 074°04'0 0.2
2014-Oct-26 21:34N 40°39' W 074°04'4 4.0
2014-Oct-26 20:33N 40°42' W 074°01'4 4.2
2014-Oct-26 19:33N 40°39' W 074°04'0 0.1
2014-Oct-26 18:33N 40°39' W 074°04'4 4.1
2014-Oct-26 17:33N 40°42' W 074°01'4 4.1
2014-Oct-26 16:33N 40°39' W 074°04'0 0.2
2014-Oct-26 15:34N 40°39' W 074°04'0 0.2
2014-Oct-26 14:33N 40°39' W 074°04'0 0.0
2014-Oct-26 13:33N 40°39' W 074°04'0 0.0
2014-Oct-26 12:30N 40°39' W 074°04'0 0.0
2014-Oct-26 11:33N 40°39' W 074°04'0 0.0
2014-Oct-26 10:33N 40°39' W 074°04'0 0.0
2014-Oct-26 09:33N 40°39' W 074°04'0 0.0
2014-Oct-26 08:32N 40°39' W 074°04'0 0.0
2014-Oct-26 07:33N 40°39' W 074°04'0 0.0
2014-Oct-26 06:33N 40°39' W 074°04'0 0.0
2014-Oct-26 05:31N 40°39' W 074°04'0 0.0
2014-Oct-26 04:31N 40°39' W 074°04'0 0.0
2014-Oct-26 03:31N 40°39' W 074°04'0 0.0
2014-Oct-26 02:31N 40°39' W 074°04'0 0.0
2014-Oct-26 01:31N 40°39' W 074°04'0 0.0
2014-Oct-26 00:34N 40°39' W 074°04'0 0.0
2014-Oct-25 23:34N 40°39' W 074°04'0 0.1
2014-Oct-25 22:33N 40°39' W 074°04'0 0.0
2014-Oct-25 21:28N 40°39' W 074°04'0 0.0
2014-Oct-25 20:33N 40°39' W 074°04'0 0.3
2014-Oct-25 19:33N 40°39' W 074°04'0 0.2
2014-Oct-25 18:33N 40°39' W 074°04'4 3.9
2014-Oct-25 17:33N 40°42' W 074°01'4 4.2
2014-Oct-25 16:33N 40°39' W 074°04'0 0.3
2014-Oct-25 15:34N 40°39' W 074°04'0 0.3
2014-Oct-25 14:31N 40°39' W 074°04'0 0.0
2014-Oct-25 13:33N 40°39' W 074°04'0 0.0
2014-Oct-25 12:30N 40°39' W 074°04'0 0.0
2014-Oct-25 11:30N 40°39' W 074°04'0 0.0
2014-Oct-25 10:33N 40°39' W 074°04'0 0.0
2014-Oct-25 09:33N 40°39' W 074°04'0 0.0
2014-Oct-25 08:33N 40°39' W 074°04'0 0.0
2014-Oct-25 07:33N 40°39' W 074°04'0 0.0
2014-Oct-25 06:33N 40°39' W 074°04'0 0.0
2014-Oct-25 05:33N 40°39' W 074°04'0 0.0
2014-Oct-25 04:33N 40°39' W 074°04'0 0.0
2014-Oct-25 03:27N 40°39' W 074°04'0 0.0
2014-Oct-25 02:33N 40°39' W 074°04'0 0.0
2014-Oct-25 01:33N 40°39' W 074°04'0 0.1
2014-Oct-25 00:05N 40°39' W 074°04'4 6.8
2014-Oct-24 23:27N 40°42' W 074°01'0 0.1
2014-Oct-24 22:33N 40°42' W 074°01'0 0.1
2014-Oct-24 21:33N 40°42' W 074°01'2 2.3
2014-Oct-24 20:33N 40°40' W 074°03'2 1.7
2014-Oct-24 19:27N 40°39' W 074°04'0 0.2
2014-Oct-24 18:33N 40°39' W 074°04'0 0.0
2014-Oct-24 17:33N 40°39' W 074°04'4 4.1
2014-Oct-24 16:34N 40°42' W 074°01'0 0.1
2014-Oct-24 15:34N 40°42' W 074°01'0 0.2
2014-Oct-24 14:34N 40°42' W 074°01'4 4.0
2014-Oct-24 13:33N 40°39' W 074°04'3 3.3
2014-Oct-24 12:33N 40°41' W 074°02'1 0.6
2014-Oct-24 11:33N 40°42' W 074°01'0 0.3
2014-Oct-24 10:33N 40°42' W 074°01'4 4.2
2014-Oct-24 09:34N 40°39' W 074°04'0 0.0
2014-Oct-24 08:34N 40°39' W 074°04'0 0.0
2014-Oct-24 07:32N 40°39' W 074°04'0 0.0
2014-Oct-24 06:32N 40°39' W 074°04'0 0.0
2014-Oct-24 05:29N 40°39' W 074°04'0 0.0
2014-Oct-24 04:32N 40°39' W 074°04'0 0.0
2014-Oct-24 03:32N 40°39' W 074°04'0 0.0
2014-Oct-24 02:32N 40°39' W 074°04'0 0.1
2014-Oct-24 01:33N 40°39' W 074°04'4 4.2
2014-Oct-24 00:33N 40°42' W 074°01'4 3.7
2014-Oct-23 23:25N 40°39' W 074°04'0 0.1
2014-Oct-23 22:34N 40°39' W 074°04'0 0.3
2014-Oct-23 21:34N 40°39' W 074°04'4 4.0
2014-Oct-23 20:34N 40°42' W 074°01'0 0.1
2014-Oct-23 19:33N 40°42' W 074°01'4 3.5
2014-Oct-23 18:21N 40°39' W 074°04'0 0.4
2014-Oct-23 17:34N 40°39' W 074°04'0 0.4
2014-Oct-23 16:33N 40°39' W 074°04'0 0.0
2014-Oct-23 15:33N 40°39' W 074°04'0 0.1
2014-Oct-23 14:33N 40°39' W 074°04'0 0.0
2014-Oct-23 13:33N 40°39' W 074°04'3 3.4
2014-Oct-23 12:34N 40°41' W 074°02'1 0.6
2014-Oct-23 11:34N 40°42' W 074°01'0 0.2
2014-Oct-23 10:33N 40°42' W 074°01'4 4.2
2014-Oct-23 09:33N 40°39' W 074°04'0 0.0
2014-Oct-23 08:11N 40°39' W 074°04'0 0.0
2014-Oct-23 07:32N 40°39' W 074°04'0 0.0
2014-Oct-23 06:32N 40°39' W 074°04'0 0.0
2014-Oct-23 05:32N 40°39' W 074°04'0 0.0
2014-Oct-23 04:32N 40°39' W 074°04'0 0.0
2014-Oct-23 03:32N 40°39' W 074°04'0 0.0
2014-Oct-23 02:32N 40°39' W 074°04'4 2.1
2014-Oct-23 00:34N 40°42' W 074°01'4 3.6
2014-Oct-22 23:25N 40°39' W 074°04'0 0.1
2014-Oct-22 22:33N 40°39' W 074°04'0 0.3
2014-Oct-22 21:34N 40°39' W 074°04'4 4.0
2014-Oct-22 20:33N 40°42' W 074°01'0 0.0
2014-Oct-22 19:33N 40°42' W 074°01'4 3.6
2014-Oct-22 18:22N 40°39' W 074°04'0 0.4
2014-Oct-22 17:33N 40°39' W 074°04'4 4.0
2014-Oct-22 16:34N 40°42' W 074°01'4 4.3
2014-Oct-22 15:33N 40°39' W 074°04'0 0.0
2014-Oct-22 14:33N 40°39' W 074°04'0 0.2
2014-Oct-22 13:33N 40°39' W 074°04'3 3.0
2014-Oct-22 12:33N 40°41' W 074°02'1 0.9
2014-Oct-22 11:33N 40°42' W 074°01'0 0.1
2014-Oct-22 10:33N 40°42' W 074°01'4 4.2
2014-Oct-22 09:33N 40°39' W 074°04'0 0.0
2014-Oct-22 08:33N 40°39' W 074°04'0 0.0
2014-Oct-22 07:31N 40°39' W 074°04'0 0.0
2014-Oct-22 06:31N 40°39' W 074°04'0 0.0
2014-Oct-22 05:28N 40°39' W 074°04'0 0.0
2014-Oct-22 04:31N 40°39' W 074°04'0 0.0
2014-Oct-22 03:31N 40°39' W 074°04'0 0.0
2014-Oct-22 02:31N 40°39' W 074°04'0 0.1
2014-Oct-22 01:34N 40°39' W 074°04'4 3.6
2014-Oct-22 00:21N 40°42' W 074°01'4 4.6
2014-Oct-21 23:25N 40°39' W 074°04'0 0.0
2014-Oct-21 22:34N 40°39' W 074°04'0 0.0
2014-Oct-21 21:33N 40°39' W 074°04'4 4.2
2014-Oct-21 20:33N 40°42' W 074°01'0 0.1
2014-Oct-21 19:33N 40°42' W 074°01'4 3.5
2014-Oct-21 18:21N 40°39' W 074°04'0 0.3
2014-Oct-21 17:33N 40°39' W 074°04'0 0.1
2014-Oct-21 13:34N 40°39' W 074°04'3 3.0
2014-Oct-21 12:33N 40°41' W 074°02'1 1.0
2014-Oct-21 11:34N 40°42' W 074°01'0 0.2
2014-Oct-21 10:34N 40°42' W 074°01'4 4.2
2014-Oct-21 09:34N 40°39' W 074°04'0 0.0
2014-Oct-21 07:28N 40°39' W 074°04'0 0.0
2014-Oct-21 06:31N 40°39' W 074°04'0 0.0
2014-Oct-21 05:31N 40°39' W 074°04'0 0.0
2014-Oct-21 04:31N 40°39' W 074°04'0 0.0
2014-Oct-21 03:31N 40°39' W 074°04'0 0.1
2014-Oct-21 02:33N 40°39' W 074°04'4 4.2
2014-Oct-21 01:33N 40°42' W 074°01'0 0.1
2014-Oct-21 00:34N 40°42' W 074°01'4 4.3
2014-Oct-20 23:33N 40°39' W 074°04'0 0.4
2014-Oct-20 22:33N 40°39' W 074°04'0 0.3
2014-Oct-20 21:33N 40°39' W 074°04'4 3.9
2014-Oct-20 20:29N 40°42' W 074°01'0 0.0
2014-Oct-20 19:33N 40°42' W 074°01'4 3.6
2014-Oct-20 18:22N 40°39' W 074°04'0 0.3
2014-Oct-20 17:33N 40°39' W 074°04'4 4.1
2014-Oct-20 16:34N 40°42' W 074°01'4 4.3
2014-Oct-20 15:33N 40°39' W 074°04'0 0.1
2014-Oct-20 14:34N 40°39' W 074°04'0 0.1
2014-Oct-20 13:34N 40°39' W 074°04'  
Track history (hours):
 
Tides and Currents Weather Stations Pressure Air Temp Water Temp Dewpoint Dewpoint Depression Visibility Wind Speed Wind Dir Waves Ship Positions

Andrew J. Barberi

Owner: CITY OF NEW YORK, Brooklyn, NY. More information available from US FCC via Universal Licensing System and Coast Guard Vessel Documentation Center.

Last reported at 2014-Oct-30 13:33 UTC. Time now 2014-Oct-30 14:27 UTC.
Position N 40°39' W 074°04'.

Length 94 m; draft 4.3 m.

Type: Ship. MMSI: 367000150.

Date/timePositionNaut miles runAvg speedWind from/ knotsBaromVisibWave heightAir tempDewpointWater temp
2014-Oct-30 13:33N 40°39' W 074°04'3 2.7
2014-Oct-30 12:33N 40°41' W 074°02'1 0.8
2014-Oct-30 11:33N 40°41' W 074°02'1 0.9
2014-Oct-30 10:33N 40°42' W 074°01'4 4.3
2014-Oct-30 09:33N 40°39' W 074°04'0 0.0
2014-Oct-30 08:15N 40°39' W 074°04'0 0.0
2014-Oct-30 07:32N 40°39' W 074°04'0 0.0
2014-Oct-30 06:29N 40°39' W 074°04'0 0.0
2014-Oct-30 05:32N 40°39' W 074°04'0 0.0
2014-Oct-30 04:32N 40°39' W 074°04'0 0.0
2014-Oct-30 03:32N 40°39' W 074°04'0 0.0
2014-Oct-30 02:32N 40°39' W 074°04'0 0.1
2014-Oct-30 01:33N 40°39' W 074°04'4 4.3
2014-Oct-30 00:33N 40°42' W 074°01'4 3.9
2014-Oct-29 23:34N 40°39' W 074°04'0 0.2
2014-Oct-29 21:33N 40°39' W 074°04'0 0.2
2014-Oct-29 20:33N 40°39' W 074°04'4 4.2
2014-Oct-29 19:33N 40°42' W 074°01'4 3.8
2014-Oct-29 18:25N 40°39' W 074°04'0 0.2
2014-Oct-29 17:33N 40°39' W 074°04'4 4.0
2014-Oct-29 16:34N 40°42' W 074°01'4 4.2
2014-Oct-29 15:33N 40°39' W 074°04'0 0.0
2014-Oct-29 14:33N 40°39' W 074°04'0 0.3
2014-Oct-29 13:33N 40°39' W 074°04'3 2.9
2014-Oct-29 12:33N 40°41' W 074°02'0 0.5
2014-Oct-29 11:33N 40°42' W 074°01'1 0.5
2014-Oct-29 10:34N 40°42' W 074°01'4 4.0
2014-Oct-29 09:34N 40°39' W 074°04'0 0.2
2014-Oct-29 08:33N 40°39' W 074°04'0 0.0
2014-Oct-29 07:33N 40°39' W 074°04'0 0.0
2014-Oct-29 06:33N 40°39' W 074°04'0 0.0
2014-Oct-29 05:33N 40°39' W 074°04'0 0.0
2014-Oct-29 04:33N 40°39' W 074°04'0 0.0
2014-Oct-29 03:30N 40°39' W 074°04'0 0.0
2014-Oct-29 02:33N 40°39' W 074°04'4 2.0
2014-Oct-29 00:26N 40°42' W 074°01'4 4.4
2014-Oct-28 23:27N 40°39' W 074°04'0 0.1
2014-Oct-28 22:33N 40°39' W 074°04'0 0.1
2014-Oct-28 21:34N 40°39' W 074°04'4 4.1
2014-Oct-28 20:33N 40°42' W 074°01'0 0.1
2014-Oct-28 19:27N 40°42' W 074°01'4 4.2
2014-Oct-28 18:25N 40°39' W 074°04'0 0.3
2014-Oct-28 17:34N 40°39' W 074°04'4 4.0
2014-Oct-28 16:34N 40°42' W 074°01'0 0.1
2014-Oct-28 15:34N 40°42' W 074°01'4 4.2
2014-Oct-28 14:34N 40°39' W 074°04'0 0.2
2014-Oct-28 13:33N 40°39' W 074°04'3 2.9
2014-Oct-28 12:33N 40°41' W 074°02'3 2.4
2014-Oct-28 11:17N 40°39' W 074°04'4 5.6
2014-Oct-28 10:34N 40°42' W 074°01'4 4.2
2014-Oct-28 09:33N 40°39' W 074°04'0 0.0
2014-Oct-28 08:17N 40°39' W 074°04'0 0.0
2014-Oct-28 07:32N 40°39' W 074°04'0 0.0
2014-Oct-28 06:32N 40°39' W 074°04'0 0.0
2014-Oct-28 05:32N 40°39' W 074°04'0 0.0
2014-Oct-28 04:32N 40°39' W 074°04'0 0.0
2014-Oct-28 03:32N 40°39' W 074°04'0 0.0
2014-Oct-28 02:32N 40°39' W 074°04'0 0.1
2014-Oct-28 01:33N 40°39' W 074°04'4 4.2
2014-Oct-28 00:34N 40°42' W 074°01'4 4.2
2014-Oct-27 23:33N 40°39' W 074°04'4 3.7
2014-Oct-27 22:33N 40°42' W 074°01'1 0.5
2014-Oct-27 21:33N 40°42' W 074°01'0 0.0
2014-Oct-27 20:34N 40°42' W 074°01'0 0.0
2014-Oct-27 19:33N 40°42' W 074°01'4 4.2
2014-Oct-27 18:33N 40°39' W 074°04'0 0.4
2014-Oct-27 17:33N 40°39' W 074°04'0 0.3
2014-Oct-27 16:33N 40°39' W 074°04'4 4.1
2014-Oct-27 15:33N 40°42' W 074°01'4 4.1
2014-Oct-27 14:33N 40°39' W 074°04'0 0.1
2014-Oct-27 13:33N 40°39' W 074°04'4 3.8
2014-Oct-27 12:34N 40°42' W 074°01'0 0.0
2014-Oct-27 11:34N 40°42' W 074°01'0 0.3
2014-Oct-27 10:33N 40°42' W 074°01'4 4.1
2014-Oct-27 09:32N 40°39' W 074°04'0 0.0
2014-Oct-27 08:33N 40°39' W 074°04'0 0.0
2014-Oct-27 07:33N 40°39' W 074°04'0 0.0
2014-Oct-27 06:33N 40°39' W 074°04'0 0.0
2014-Oct-27 05:33N 40°39' W 074°04'0 0.0
2014-Oct-27 04:33N 40°39' W 074°04'0 0.0
2014-Oct-27 03:33N 40°39' W 074°04'0 0.0
2014-Oct-27 02:33N 40°39' W 074°04'0 0.0
2014-Oct-27 01:33N 40°39' W 074°04'0 0.0
2014-Oct-27 00:33N 40°39' W 074°04'0 0.0
2014-Oct-26 23:33N 40°39' W 074°04'1 0.5
2014-Oct-26 22:34N 40°39' W 074°04'0 0.2
2014-Oct-26 21:34N 40°39' W 074°04'4 4.0
2014-Oct-26 20:33N 40°42' W 074°01'4 4.2
2014-Oct-26 19:33N 40°39' W 074°04'0 0.1
2014-Oct-26 18:33N 40°39' W 074°04'4 4.1
2014-Oct-26 17:33N 40°42' W 074°01'4 4.1
2014-Oct-26 16:33N 40°39' W 074°04'0 0.2
2014-Oct-26 15:34N 40°39' W 074°04'0 0.2
2014-Oct-26 14:33N 40°39' W 074°04'0 0.0
2014-Oct-26 13:33N 40°39' W 074°04'0 0.0
2014-Oct-26 12:30N 40°39' W 074°04'0 0.0
2014-Oct-26 11:33N 40°39' W 074°04'0 0.0
2014-Oct-26 10:33N 40°39' W 074°04'0 0.0
2014-Oct-26 09:33N 40°39' W 074°04'0 0.0
2014-Oct-26 08:32N 40°39' W 074°04'0 0.0
2014-Oct-26 07:33N 40°39' W 074°04'0 0.0
2014-Oct-26 06:33N 40°39' W 074°04'0 0.0
2014-Oct-26 05:31N 40°39' W 074°04'0 0.0
2014-Oct-26 04:31N 40°39' W 074°04'0 0.0
2014-Oct-26 03:31N 40°39' W 074°04'0 0.0
2014-Oct-26 02:31N 40°39' W 074°04'0 0.0
2014-Oct-26 01:31N 40°39' W 074°04'0 0.0
2014-Oct-26 00:34N 40°39' W 074°04'0 0.0
2014-Oct-25 23:34N 40°39' W 074°04'0 0.1
2014-Oct-25 22:33N 40°39' W 074°04'0 0.0
2014-Oct-25 21:28N 40°39' W 074°04'0 0.0
2014-Oct-25 20:33N 40°39' W 074°04'0 0.3
2014-Oct-25 19:33N 40°39' W 074°04'0 0.2
2014-Oct-25 18:33N 40°39' W 074°04'4 3.9
2014-Oct-25 17:33N 40°42' W 074°01'4 4.2
2014-Oct-25 16:33N 40°39' W 074°04'0 0.3
2014-Oct-25 15:34N 40°39' W 074°04'0 0.3
2014-Oct-25 14:31N 40°39' W 074°04'0 0.0
2014-Oct-25 13:33N 40°39' W 074°04'0 0.0
2014-Oct-25 12:30N 40°39' W 074°04'0 0.0
2014-Oct-25 11:30N 40°39' W 074°04'0 0.0
2014-Oct-25 10:33N 40°39' W 074°04'0 0.0
2014-Oct-25 09:33N 40°39' W 074°04'0 0.0
2014-Oct-25 08:33N 40°39' W 074°04'0 0.0
2014-Oct-25 07:33N 40°39' W 074°04'0 0.0
2014-Oct-25 06:33N 40°39' W 074°04'0 0.0
2014-Oct-25 05:33N 40°39' W 074°04'0 0.0
2014-Oct-25 04:33N 40°39' W 074°04'0 0.0
2014-Oct-25 03:27N 40°39' W 074°04'0 0.0
2014-Oct-25 02:33N 40°39' W 074°04'0 0.0
2014-Oct-25 01:33N 40°39' W 074°04'0 0.1
2014-Oct-25 00:05N 40°39' W 074°04'4 6.8
2014-Oct-24 23:27N 40°42' W 074°01'0 0.1
2014-Oct-24 22:33N 40°42' W 074°01'0 0.1
2014-Oct-24 21:33N 40°42' W 074°01'2 2.3
2014-Oct-24 20:33N 40°40' W 074°03'2 1.7
2014-Oct-24 19:27N 40°39' W 074°04'0 0.2
2014-Oct-24 18:33N 40°39' W 074°04'0 0.0
2014-Oct-24 17:33N 40°39' W 074°04'4 4.1
2014-Oct-24 16:34N 40°42' W 074°01'0 0.1
2014-Oct-24 15:34N 40°42' W 074°01'0 0.2
2014-Oct-24 14:34N 40°42' W 074°01'4 4.0
2014-Oct-24 13:33N 40°39' W 074°04'3 3.3
2014-Oct-24 12:33N 40°41' W 074°02'1 0.6
2014-Oct-24 11:33N 40°42' W 074°01'0 0.3
2014-Oct-24 10:33N 40°42' W 074°01'4 4.2
2014-Oct-24 09:34N 40°39' W 074°04'0 0.0
2014-Oct-24 08:34N 40°39' W 074°04'0 0.0
2014-Oct-24 07:32N 40°39' W 074°04'0 0.0
2014-Oct-24 06:32N 40°39' W 074°04'0 0.0
2014-Oct-24 05:29N 40°39' W 074°04'0 0.0
2014-Oct-24 04:32N 40°39' W 074°04'0 0.0
2014-Oct-24 03:32N 40°39' W 074°04'0 0.0
2014-Oct-24 02:32N 40°39' W 074°04'0 0.1
2014-Oct-24 01:33N 40°39' W 074°04'4 4.2
2014-Oct-24 00:33N 40°42' W 074°01'4 3.7
2014-Oct-23 23:25N 40°39' W 074°04'0 0.1
2014-Oct-23 22:34N 40°39' W 074°04'0 0.3
2014-Oct-23 21:34N 40°39' W 074°04'4 4.0
2014-Oct-23 20:34N 40°42' W 074°01'0 0.1
2014-Oct-23 19:33N 40°42' W 074°01'4 3.5
2014-Oct-23 18:21N 40°39' W 074°04'0 0.4
2014-Oct-23 17:34N 40°39' W 074°04'0 0.4
2014-Oct-23 16:33N 40°39' W 074°04'0 0.0
2014-Oct-23 15:33N 40°39' W 074°04'0 0.1
2014-Oct-23 14:33N 40°39' W 074°04'0 0.0
2014-Oct-23 13:33N 40°39' W 074°04'3 3.4
2014-Oct-23 12:34N 40°41' W 074°02'1 0.6
2014-Oct-23 11:34N 40°42' W 074°01'0 0.2
2014-Oct-23 10:33N 40°42' W 074°01'4 4.2
2014-Oct-23 09:33N 40°39' W 074°04'0 0.0
2014-Oct-23 08:11N 40°39' W 074°04'0 0.0
2014-Oct-23 07:32N 40°39' W 074°04'0 0.0
2014-Oct-23 06:32N 40°39' W 074°04'0 0.0
2014-Oct-23 05:32N 40°39' W 074°04'0 0.0
2014-Oct-23 04:32N 40°39' W 074°04'0 0.0
2014-Oct-23 03:32N 40°39' W 074°04'0 0.0
2014-Oct-23 02:32N 40°39' W 074°04'4 2.1
2014-Oct-23 00:34N 40°42' W 074°01'4 3.6
2014-Oct-22 23:25N 40°39' W 074°04'0 0.1
2014-Oct-22 22:33N 40°39' W 074°04'0 0.3
2014-Oct-22 21:34N 40°39' W 074°04'4 4.0
2014-Oct-22 20:33N 40°42' W 074°01'0 0.0
2014-Oct-22 19:33N 40°42' W 074°01'4 3.6
2014-Oct-22 18:22N 40°39' W 074°04'0 0.4
2014-Oct-22 17:33N 40°39' W 074°04'4 4.0
2014-Oct-22 16:34N 40°42' W 074°01'4 4.3
2014-Oct-22 15:33N 40°39' W 074°04'0 0.0
2014-Oct-22 14:33N 40°39' W 074°04'0 0.2
2014-Oct-22 13:33N 40°39' W 074°04'3 3.0
2014-Oct-22 12:33N 40°41' W 074°02'1 0.9
2014-Oct-22 11:33N 40°42' W 074°01'0 0.1
2014-Oct-22 10:33N 40°42' W 074°01'4 4.2
2014-Oct-22 09:33N 40°39' W 074°04'0 0.0
2014-Oct-22 08:33N 40°39' W 074°04'0 0.0
2014-Oct-22 07:31N 40°39' W 074°04'0 0.0
2014-Oct-22 06:31N 40°39' W 074°04'0 0.0
2014-Oct-22 05:28N 40°39' W 074°04'0 0.0
2014-Oct-22 04:31N 40°39' W 074°04'0 0.0
2014-Oct-22 03:31N 40°39' W 074°04'0 0.0
2014-Oct-22 02:31N 40°39' W 074°04'0 0.1
2014-Oct-22 01:34N 40°39' W 074°04'4 3.6
2014-Oct-22 00:21N 40°42' W 074°01'4 4.6
2014-Oct-21 23:25N 40°39' W 074°04'0 0.0
2014-Oct-21 22:34N 40°39' W 074°04'0 0.0
2014-Oct-21 21:33N 40°39' W 074°04'4 4.2
2014-Oct-21 20:33N 40°42' W 074°01'0 0.1
2014-Oct-21 19:33N 40°42' W 074°01'4 3.5
2014-Oct-21 18:21N 40°39' W 074°04'0 0.3
2014-Oct-21 17:33N 40°39' W 074°04'0 0.1
2014-Oct-21 13:34N 40°39' W 074°04'3 3.0
2014-Oct-21 12:33N 40°41' W 074°02'1 1.0
2014-Oct-21 11:34N 40°42' W 074°01'0 0.2
2014-Oct-21 10:34N 40°42' W 074°01'4 4.2
2014-Oct-21 09:34N 40°39' W 074°04'0 0.0
2014-Oct-21 07:28N 40°39' W 074°04'0 0.0
2014-Oct-21 06:31N 40°39' W 074°04'0 0.0
2014-Oct-21 05:31N 40°39' W 074°04'0 0.0
2014-Oct-21 04:31N 40°39' W 074°04'0 0.0
2014-Oct-21 03:31N 40°39' W 074°04'0 0.1
2014-Oct-21 02:33N 40°39' W 074°04'4 4.2
2014-Oct-21 01:33N 40°42' W 074°01'0 0.1
2014-Oct-21 00:34N 40°42' W 074°01'4 4.3
2014-Oct-20 23:33N 40°39' W 074°04'0 0.4
2014-Oct-20 22:33N 40°39' W 074°04'0 0.3
2014-Oct-20 21:33N 40°39' W 074°04'4 3.9
2014-Oct-20 20:29N 40°42' W 074°01'0 0.0
2014-Oct-20 19:33N 40°42' W 074°01'4 3.6
2014-Oct-20 18:22N 40°39' W 074°04'0 0.3
2014-Oct-20 17:33N 40°39' W 074°04'4 4.1
2014-Oct-20 16:34N 40°42' W 074°01'4 4.3
2014-Oct-20 15:33N 40°39' W 074°04'0 0.1
2014-Oct-20 14:34N 40°39' W 074°04'0 0.1
2014-Oct-20 13:34N 40°39' W 074°04'  

Dump ship's entire track history